Aviston, Illinois
Current Conditions -  °F | °C
As of 2:58 PM on Tuesday 27 Jan 2015 (Local Time) from KBLV Reporting Station
Broken Clouds Broken Clouds  
Wind Chill: 39°   Ceiling: 3400
Heat Index: 43°   Visibility: 10mi
Dew Point: 31°   Wind: 8mph
Humidity: 61%   Direction: 10°N
Pressure: 30.16"   Gusts: NA
Location:  38.61°N, 89.61°W
Report Text: KBLV 272058Z 01007KT 10SM BKN034 06/M01 A3016 RMK AO2A SLP220 T00631008 53003
Loading
Personal Weather Stations






























Interactive Weather Map New forecast layout! Learn more

10-Day Weather Forecast

Advertisements
Track Severe Weather on mobile